Terminal Aerodrome Forecast
Issued by NWS

Home | Current Version | Previous Version | Text Only | Print | Product List | Glossary On
Versions: 1 2 3 4 5 6 7 8 9 10 11 12 13 14 15 16 17 18 19 20 21 22 23 24 25 26 27 28 29 30 31 32
000
FTAK31 PANC 161137
TAFAIL
TAF
PAIL 161137Z 1612/1712 20010G20KT P6SM -SHRA BKN025 OVC040
     FM161800 VRB06KT P6SM VCSH SCT025 BKN035
     FM170000 09012G22KT P6SM BKN045
     FM170300 09018G28KT P6SM VCSH BKN045=

USA.gov is the U.S. government's official web portal to all federal, state and local government web resources and services.